sensor_id;sensor_type;location;lat;lon;timestamp;P1;durP1;ratioP1;P2;durP2;ratioP2
58842;SDS011;44614;54.356;10.100;2022-12-20T00:01:35;17.07;;;6.83;;
58842;SDS011;44614;54.356;10.100;2022-12-20T00:04:01;17.70;;;7.38;;
58842;SDS011;44614;54.356;10.100;2022-12-20T00:06:29;15.90;;;7.13;;
58842;SDS011;44614;54.356;10.100;2022-12-20T00:08:56;21.63;;;9.77;;
58842;SDS011;44614;54.356;10.100;2022-12-20T00:11:23;13.05;;;6.93;;
58842;SDS011;44614;54.356;10.100;2022-12-20T00:13:49;17.85;;;7.63;;
58842;SDS011;44614;54.356;10.100;2022-12-20T00:16:16;13.98;;;7.22;;
58842;SDS011;44614;54.356;10.100;2022-12-20T00:18:53;16.60;;;7.50;;
58842;SDS011;44614;54.356;10.100;2022-12-20T00:21:20;14.13;;;6.97;;
58842;SDS011;44614;54.356;10.100;2022-12-20T00:23:46;12.13;;;5.65;;
58842;SDS011;44614;54.356;10.100;2022-12-20T00:26:13;17.55;;;6.15;;
58842;SDS011;44614;54.356;10.100;2022-12-20T00:28:40;12.93;;;6.47;;
58842;SDS011;44614;54.356;10.100;2022-12-20T00:31:06;16.15;;;7.35;;
58842;SDS011;44614;54.356;10.100;2022-12-20T00:33:33;13.27;;;5.68;;
58842;SDS011;44614;54.356;10.100;2022-12-20T00:36:01;15.30;;;7.95;;
58842;SDS011;44614;54.356;10.100;2022-12-20T00:38:26;16.33;;;6.88;;
58842;SDS011;44614;54.356;10.100;2022-12-20T00:40:58;13.25;;;7.00;;
58842;SDS011;44614;54.356;10.100;2022-12-20T00:43:24;22.50;;;8.32;;
58842;SDS011;44614;54.356;10.100;2022-12-20T00:45:49;16.20;;;6.80;;
58842;SDS011;44614;54.356;10.100;2022-12-20T00:48:14;15.35;;;6.45;;
58842;SDS011;44614;54.356;10.100;2022-12-20T00:50:40;16.93;;;6.90;;
58842;SDS011;44614;54.356;10.100;2022-12-20T00:53:05;15.73;;;6.80;;
58842;SDS011;44614;54.356;10.100;2022-12-20T00:55:33;13.70;;;6.97;;
58842;SDS011;44614;54.356;10.100;2022-12-20T00:57:59;15.35;;;6.68;;
58842;SDS011;44614;54.356;10.100;2022-12-20T01:00:24;11.33;;;6.50;;
58842;SDS011;44614;54.356;10.100;2022-12-20T01:02:49;15.27;;;6.13;;
58842;SDS011;44614;54.356;10.100;2022-12-20T01:05:15;11.73;;;6.40;;
58842;SDS011;44614;54.356;10.100;2022-12-20T01:07:40;12.90;;;6.05;;
58842;SDS011;44614;54.356;10.100;2022-12-20T01:10:05;11.20;;;5.82;;
58842;SDS011;44614;54.356;10.100;2022-12-20T01:12:31;15.68;;;6.75;;
58842;SDS011;44614;54.356;10.100;2022-12-20T01:14:57;15.27;;;6.85;;
58842;SDS011;44614;54.356;10.100;2022-12-20T01:17:22;17.77;;;5.87;;
58842;SDS011;44614;54.356;10.100;2022-12-20T01:19:47;13.53;;;6.50;;
58842;SDS011;44614;54.356;10.100;2022-12-20T01:22:12;13.70;;;5.70;;
58842;SDS011;44614;54.356;10.100;2022-12-20T01:24:38;15.20;;;6.22;;
58842;SDS011;44614;54.356;10.100;2022-12-20T01:27:03;11.27;;;5.57;;
58842;SDS011;44614;54.356;10.100;2022-12-20T01:29:28;13.45;;;6.75;;
58842;SDS011;44614;54.356;10.100;2022-12-20T01:31:54;14.27;;;7.38;;
58842;SDS011;44614;54.356;10.100;2022-12-20T01:34:19;15.18;;;6.93;;
58842;SDS011;44614;54.356;10.100;2022-12-20T01:36:45;14.60;;;6.50;;
58842;SDS011;44614;54.356;10.100;2022-12-20T01:39:11;14.73;;;7.35;;
58842;SDS011;44614;54.356;10.100;2022-12-20T01:41:39;14.50;;;5.60;;
58842;SDS011;44614;54.356;10.100;2022-12-20T01:44:49;12.82;;;6.50;;
58842;SDS011;44614;54.356;10.100;2022-12-20T01:46:51;12.63;;;6.15;;
58842;SDS011;44614;54.356;10.100;2022-12-20T01:49:31;9.35;;;5.93;;
58842;SDS011;44614;54.356;10.100;2022-12-20T01:52:06;19.33;;;6.10;;
58842;SDS011;44614;54.356;10.100;2022-12-20T01:57:09;12.75;;;5.35;;
58842;SDS011;44614;54.356;10.100;2022-12-20T01:59:39;17.48;;;7.38;;
58842;SDS011;44614;54.356;10.100;2022-12-20T02:02:08;11.32;;;5.97;;
58842;SDS011;44614;54.356;10.100;2022-12-20T02:04:36;11.38;;;6.20;;
58842;SDS011;44614;54.356;10.100;2022-12-20T02:07:02;13.18;;;6.95;;
58842;SDS011;44614;54.356;10.100;2022-12-20T02:09:29;11.95;;;6.22;;
58842;SDS011;44614;54.356;10.100;2022-12-20T02:12:02;17.83;;;6.65;;
58842;SDS011;44614;54.356;10.100;2022-12-20T02:20:31;14.40;;;7.13;;
58842;SDS011;44614;54.356;10.100;2022-12-20T02:25:37;10.95;;;6.40;;
58842;SDS011;44614;54.356;10.100;2022-12-20T02:28:15;15.65;;;6.00;;
58842;SDS011;44614;54.356;10.100;2022-12-20T02:30:55;13.68;;;6.00;;
58842;SDS011;44614;54.356;10.100;2022-12-20T02:33:24;14.20;;;7.15;;
58842;SDS011;44614;54.356;10.100;2022-12-20T02:35:52;12.88;;;6.85;;
58842;SDS011;44614;54.356;10.100;2022-12-20T02:38:28;10.50;;;6.57;;
58842;SDS011;44614;54.356;10.100;2022-12-20T02:41:12;15.70;;;6.28;;
58842;SDS011;44614;54.356;10.100;2022-12-20T02:43:46;14.75;;;7.45;;
58842;SDS011;44614;54.356;10.100;2022-12-20T02:46:34;13.57;;;7.30;;
58842;SDS011;44614;54.356;10.100;2022-12-20T02:49:02;11.25;;;6.18;;
58842;SDS011;44614;54.356;10.100;2022-12-20T02:51:33;12.30;;;5.68;;
58842;SDS011;44614;54.356;10.100;2022-12-20T02:53:58;17.98;;;6.68;;
58842;SDS011;44614;54.356;10.100;2022-12-20T02:59:10;13.73;;;6.03;;
58842;SDS011;44614;54.356;10.100;2022-12-20T03:01:44;10.90;;;5.80;;
58842;SDS011;44614;54.356;10.100;2022-12-20T03:04:13;15.52;;;6.20;;
58842;SDS011;44614;54.356;10.100;2022-12-20T03:06:53;12.20;;;5.60;;
58842;SDS011;44614;54.356;10.100;2022-12-20T03:09:30;15.32;;;6.18;;
58842;SDS011;44614;54.356;10.100;2022-12-20T03:11:57;14.80;;;6.80;;
58842;SDS011;44614;54.356;10.100;2022-12-20T03:14:22;16.02;;;6.57;;
58842;SDS011;44614;54.356;10.100;2022-12-20T03:16:48;15.27;;;6.00;;
58842;SDS011;44614;54.356;10.100;2022-12-20T03:19:14;13.13;;;5.57;;
58842;SDS011;44614;54.356;10.100;2022-12-20T03:21:39;14.52;;;7.20;;
58842;SDS011;44614;54.356;10.100;2022-12-20T03:24:04;16.83;;;8.80;;
58842;SDS011;44614;54.356;10.100;2022-12-20T03:26:30;15.52;;;7.28;;
58842;SDS011;44614;54.356;10.100;2022-12-20T03:28:55;14.88;;;6.93;;
58842;SDS011;44614;54.356;10.100;2022-12-20T03:31:21;17.13;;;7.70;;
58842;SDS011;44614;54.356;10.100;2022-12-20T03:33:46;12.52;;;6.50;;
58842;SDS011;44614;54.356;10.100;2022-12-20T03:36:11;12.55;;;6.75;;
58842;SDS011;44614;54.356;10.100;2022-12-20T03:38:37;14.40;;;6.90;;
58842;SDS011;44614;54.356;10.100;2022-12-20T03:41:02;15.93;;;6.38;;
58842;SDS011;44614;54.356;10.100;2022-12-20T03:43:28;15.27;;;7.15;;
58842;SDS011;44614;54.356;10.100;2022-12-20T03:45:53;13.67;;;6.63;;
58842;SDS011;44614;54.356;10.100;2022-12-20T03:48:18;16.95;;;6.70;;
58842;SDS011;44614;54.356;10.100;2022-12-20T03:50:44;14.23;;;6.67;;
58842;SDS011;44614;54.356;10.100;2022-12-20T03:53:09;15.35;;;6.35;;
58842;SDS011;44614;54.356;10.100;2022-12-20T03:55:34;14.15;;;7.72;;
58842;SDS011;44614;54.356;10.100;2022-12-20T03:58:00;14.52;;;6.97;;
58842;SDS011;44614;54.356;10.100;2022-12-20T04:00:25;14.48;;;7.55;;
58842;SDS011;44614;54.356;10.100;2022-12-20T04:02:50;10.73;;;5.65;;
58842;SDS011;44614;54.356;10.100;2022-12-20T04:05:16;23.33;;;7.68;;
58842;SDS011;44614;54.356;10.100;2022-12-20T04:07:41;14.75;;;6.55;;
58842;SDS011;44614;54.356;10.100;2022-12-20T04:10:07;16.58;;;7.13;;
58842;SDS011;44614;54.356;10.100;2022-12-20T04:12:32;13.73;;;7.50;;
58842;SDS011;44614;54.356;10.100;2022-12-20T04:14:58;19.87;;;8.30;;
58842;SDS011;44614;54.356;10.100;2022-12-20T04:17:23;14.48;;;5.45;;
58842;SDS011;44614;54.356;10.100;2022-12-20T04:19:48;16.40;;;6.60;;
58842;SDS011;44614;54.356;10.100;2022-12-20T04:22:14;14.40;;;6.97;;
58842;SDS011;44614;54.356;10.100;2022-12-20T04:24:39;14.90;;;6.97;;
58842;SDS011;44614;54.356;10.100;2022-12-20T04:27:04;15.90;;;7.57;;
58842;SDS011;44614;54.356;10.100;2022-12-20T04:29:30;16.90;;;7.82;;
58842;SDS011;44614;54.356;10.100;2022-12-20T04:31:55;13.98;;;6.78;;
58842;SDS011;44614;54.356;10.100;2022-12-20T04:34:21;16.47;;;6.57;;
58842;SDS011;44614;54.356;10.100;2022-12-20T04:36:46;13.82;;;6.07;;
58842;SDS011;44614;54.356;10.100;2022-12-20T04:39:11;16.83;;;7.05;;
58842;SDS011;44614;54.356;10.100;2022-12-20T04:41:36;12.10;;;6.63;;
58842;SDS011;44614;54.356;10.100;2022-12-20T04:44:02;14.27;;;6.30;;
58842;SDS011;44614;54.356;10.100;2022-12-20T04:46:27;14.88;;;6.90;;
58842;SDS011;44614;54.356;10.100;2022-12-20T04:48:53;15.15;;;7.45;;
58842;SDS011;44614;54.356;10.100;2022-12-20T04:51:19;14.90;;;5.93;;
58842;SDS011;44614;54.356;10.100;2022-12-20T04:53:44;11.82;;;5.63;;
58842;SDS011;44614;54.356;10.100;2022-12-20T04:56:31;15.20;;;7.45;;
58842;SDS011;44614;54.356;10.100;2022-12-20T04:58:57;11.93;;;5.57;;
58842;SDS011;44614;54.356;10.100;2022-12-20T05:01:23;11.77;;;5.57;;
58842;SDS011;44614;54.356;10.100;2022-12-20T05:03:49;14.88;;;6.70;;
58842;SDS011;44614;54.356;10.100;2022-12-20T05:06:14;14.30;;;6.32;;
58842;SDS011;44614;54.356;10.100;2022-12-20T05:08:40;13.38;;;6.22;;
58842;SDS011;44614;54.356;10.100;2022-12-20T05:11:06;12.25;;;5.72;;
58842;SDS011;44614;54.356;10.100;2022-12-20T05:13:31;13.35;;;6.57;;
58842;SDS011;44614;54.356;10.100;2022-12-20T05:15:57;13.77;;;6.85;;
58842;SDS011;44614;54.356;10.100;2022-12-20T05:18:23;16.27;;;6.35;;
58842;SDS011;44614;54.356;10.100;2022-12-20T05:20:49;12.60;;;6.13;;
58842;SDS011;44614;54.356;10.100;2022-12-20T05:23:35;11.80;;;5.47;;
58842;SDS011;44614;54.356;10.100;2022-12-20T05:26:19;15.00;;;6.85;;
58842;SDS011;44614;54.356;10.100;2022-12-20T05:28:45;17.90;;;6.55;;
58842;SDS011;44614;54.356;10.100;2022-12-20T05:31:10;14.50;;;6.28;;
58842;SDS011;44614;54.356;10.100;2022-12-20T05:33:36;15.43;;;7.22;;
58842;SDS011;44614;54.356;10.100;2022-12-20T05:36:01;13.17;;;5.37;;
58842;SDS011;44614;54.356;10.100;2022-12-20T05:38:26;16.42;;;5.97;;
58842;SDS011;44614;54.356;10.100;2022-12-20T05:40:52;14.77;;;7.43;;
58842;SDS011;44614;54.356;10.100;2022-12-20T05:43:17;15.80;;;7.05;;
58842;SDS011;44614;54.356;10.100;2022-12-20T05:45:44;11.77;;;5.50;;
58842;SDS011;44614;54.356;10.100;2022-12-20T05:48:16;17.73;;;8.48;;
58842;SDS011;44614;54.356;10.100;2022-12-20T05:50:43;12.75;;;6.78;;
58842;SDS011;44614;54.356;10.100;2022-12-20T05:53:12;16.10;;;6.55;;
58842;SDS011;44614;54.356;10.100;2022-12-20T05:55:42;13.63;;;6.65;;
58842;SDS011;44614;54.356;10.100;2022-12-20T05:58:08;9.95;;;5.78;;
58842;SDS011;44614;54.356;10.100;2022-12-20T06:00:37;14.95;;;6.15;;
58842;SDS011;44614;54.356;10.100;2022-12-20T06:03:03;15.18;;;6.05;;
58842;SDS011;44614;54.356;10.100;2022-12-20T06:05:28;15.27;;;6.00;;
58842;SDS011;44614;54.356;10.100;2022-12-20T06:07:54;11.23;;;6.78;;
58842;SDS011;44614;54.356;10.100;2022-12-20T06:10:19;11.25;;;6.40;;
58842;SDS011;44614;54.356;10.100;2022-12-20T06:12:44;16.27;;;5.67;;
58842;SDS011;44614;54.356;10.100;2022-12-20T06:15:10;12.68;;;6.18;;
58842;SDS011;44614;54.356;10.100;2022-12-20T06:17:35;18.48;;;6.50;;
58842;SDS011;44614;54.356;10.100;2022-12-20T06:20:00;10.90;;;5.67;;
58842;SDS011;44614;54.356;10.100;2022-12-20T06:22:26;18.70;;;5.75;;
58842;SDS011;44614;54.356;10.100;2022-12-20T06:24:51;13.43;;;5.50;;
58842;SDS011;44614;54.356;10.100;2022-12-20T06:27:16;15.07;;;6.47;;
58842;SDS011;44614;54.356;10.100;2022-12-20T06:29:42;11.73;;;5.50;;
58842;SDS011;44614;54.356;10.100;2022-12-20T06:32:15;13.20;;;5.38;;
58842;SDS011;44614;54.356;10.100;2022-12-20T06:34:41;13.38;;;4.80;;
58842;SDS011;44614;54.356;10.100;2022-12-20T06:37:06;12.57;;;6.13;;
58842;SDS011;44614;54.356;10.100;2022-12-20T06:39:32;16.48;;;7.03;;
58842;SDS011;44614;54.356;10.100;2022-12-20T06:41:57;13.07;;;6.33;;
58842;SDS011;44614;54.356;10.100;2022-12-20T06:44:22;11.50;;;5.20;;
58842;SDS011;44614;54.356;10.100;2022-12-20T06:46:47;16.03;;;6.27;;
58842;SDS011;44614;54.356;10.100;2022-12-20T06:49:13;16.88;;;6.53;;
58842;SDS011;44614;54.356;10.100;2022-12-20T06:51:38;12.05;;;5.93;;
58842;SDS011;44614;54.356;10.100;2022-12-20T06:54:03;13.07;;;6.50;;
58842;SDS011;44614;54.356;10.100;2022-12-20T06:56:29;12.13;;;5.10;;
58842;SDS011;44614;54.356;10.100;2022-12-20T06:58:54;13.95;;;5.72;;
58842;SDS011;44614;54.356;10.100;2022-12-20T07:01:19;13.88;;;6.30;;
58842;SDS011;44614;54.356;10.100;2022-12-20T07:03:45;12.43;;;5.40;;
58842;SDS011;44614;54.356;10.100;2022-12-20T07:06:10;10.82;;;5.40;;
58842;SDS011;44614;54.356;10.100;2022-12-20T07:08:35;16.48;;;5.60;;
58842;SDS011;44614;54.356;10.100;2022-12-20T07:11:04;11.98;;;5.00;;
58842;SDS011;44614;54.356;10.100;2022-12-20T07:13:30;12.85;;;4.57;;
58842;SDS011;44614;54.356;10.100;2022-12-20T07:15:56;8.30;;;4.40;;
58842;SDS011;44614;54.356;10.100;2022-12-20T07:18:23;14.60;;;6.50;;
58842;SDS011;44614;54.356;10.100;2022-12-20T07:20:48;13.63;;;6.07;;
58842;SDS011;44614;54.356;10.100;2022-12-20T07:23:13;11.77;;;5.15;;
58842;SDS011;44614;54.356;10.100;2022-12-20T07:25:39;13.37;;;5.60;;
58842;SDS011;44614;54.356;10.100;2022-12-20T07:28:04;9.83;;;4.90;;
58842;SDS011;44614;54.356;10.100;2022-12-20T07:30:29;11.65;;;5.00;;
58842;SDS011;44614;54.356;10.100;2022-12-20T07:32:55;10.15;;;5.25;;
58842;SDS011;44614;54.356;10.100;2022-12-20T07:35:20;13.35;;;5.28;;
58842;SDS011;44614;54.356;10.100;2022-12-20T07:37:45;11.95;;;5.00;;
58842;SDS011;44614;54.356;10.100;2022-12-20T07:40:11;9.97;;;4.77;;
58842;SDS011;44614;54.356;10.100;2022-12-20T07:42:36;10.52;;;5.03;;
58842;SDS011;44614;54.356;10.100;2022-12-20T07:45:02;16.07;;;6.00;;
58842;SDS011;44614;54.356;10.100;2022-12-20T07:47:27;10.27;;;4.68;;
58842;SDS011;44614;54.356;10.100;2022-12-20T07:49:53;7.80;;;4.03;;
58842;SDS011;44614;54.356;10.100;2022-12-20T07:52:18;12.40;;;6.07;;
58842;SDS011;44614;54.356;10.100;2022-12-20T07:54:52;12.73;;;5.18;;
58842;SDS011;44614;54.356;10.100;2022-12-20T07:57:23;11.18;;;6.47;;
58842;SDS011;44614;54.356;10.100;2022-12-20T07:59:53;11.85;;;5.15;;
58842;SDS011;44614;54.356;10.100;2022-12-20T08:02:26;14.88;;;6.25;;
58842;SDS011;44614;54.356;10.100;2022-12-20T08:04:56;11.45;;;5.35;;
58842;SDS011;44614;54.356;10.100;2022-12-20T08:07:22;19.42;;;5.65;;
58842;SDS011;44614;54.356;10.100;2022-12-20T08:09:48;13.73;;;5.70;;
58842;SDS011;44614;54.356;10.100;2022-12-20T08:12:14;12.85;;;4.82;;
58842;SDS011;44614;54.356;10.100;2022-12-20T08:17:07;11.43;;;5.05;;
58842;SDS011;44614;54.356;10.100;2022-12-20T08:19:32;10.90;;;4.88;;
58842;SDS011;44614;54.356;10.100;2022-12-20T08:21:57;10.82;;;6.20;;
58842;SDS011;44614;54.356;10.100;2022-12-20T08:24:22;18.40;;;5.97;;
58842;SDS011;44614;54.356;10.100;2022-12-20T08:26:48;10.80;;;5.65;;
58842;SDS011;44614;54.356;10.100;2022-12-20T08:29:14;11.77;;;5.68;;
58842;SDS011;44614;54.356;10.100;2022-12-20T08:31:40;16.02;;;6.90;;
58842;SDS011;44614;54.356;10.100;2022-12-20T08:34:08;14.65;;;6.88;;
58842;SDS011;44614;54.356;10.100;2022-12-20T08:36:34;18.38;;;7.68;;
58842;SDS011;44614;54.356;10.100;2022-12-20T08:39:02;10.02;;;5.78;;
58842;SDS011;44614;54.356;10.100;2022-12-20T08:41:29;13.50;;;5.93;;
58842;SDS011;44614;54.356;10.100;2022-12-20T08:43:54;15.85;;;6.43;;
58842;SDS011;44614;54.356;10.100;2022-12-20T08:46:19;14.77;;;7.40;;
58842;SDS011;44614;54.356;10.100;2022-12-20T08:48:45;16.85;;;7.95;;
58842;SDS011;44614;54.356;10.100;2022-12-20T08:51:10;14.53;;;7.23;;
58842;SDS011;44614;54.356;10.100;2022-12-20T08:53:36;13.52;;;5.78;;
58842;SDS011;44614;54.356;10.100;2022-12-20T08:56:06;16.17;;;6.95;;
58842;SDS011;44614;54.356;10.100;2022-12-20T08:58:32;15.80;;;5.75;;
58842;SDS011;44614;54.356;10.100;2022-12-20T09:01:02;16.48;;;6.70;;
58842;SDS011;44614;54.356;10.100;2022-12-20T09:03:29;11.85;;;6.28;;
58842;SDS011;44614;54.356;10.100;2022-12-20T09:05:55;15.50;;;7.03;;
58842;SDS011;44614;54.356;10.100;2022-12-20T09:08:21;9.40;;;4.82;;
58842;SDS011;44614;54.356;10.100;2022-12-20T09:10:46;14.97;;;6.87;;
58842;SDS011;44614;54.356;10.100;2022-12-20T09:13:11;12.80;;;5.80;;
58842;SDS011;44614;54.356;10.100;2022-12-20T09:15:37;10.63;;;6.43;;
58842;SDS011;44614;54.356;10.100;2022-12-20T09:18:02;13.13;;;5.93;;
58842;SDS011;44614;54.356;10.100;2022-12-20T09:20:28;18.70;;;5.95;;
58842;SDS011;44614;54.356;10.100;2022-12-20T09:22:53;14.05;;;6.18;;
58842;SDS011;44614;54.356;10.100;2022-12-20T09:25:19;8.98;;;4.65;;
58842;SDS011;44614;54.356;10.100;2022-12-20T09:27:44;9.87;;;5.17;;
58842;SDS011;44614;54.356;10.100;2022-12-20T09:30:10;13.00;;;5.55;;
58842;SDS011;44614;54.356;10.100;2022-12-20T09:32:35;11.75;;;4.50;;
58842;SDS011;44614;54.356;10.100;2022-12-20T09:35:01;9.38;;;4.55;;
58842;SDS011;44614;54.356;10.100;2022-12-20T09:37:28;10.18;;;5.18;;
58842;SDS011;44614;54.356;10.100;2022-12-20T09:39:55;11.20;;;6.15;;
58842;SDS011;44614;54.356;10.100;2022-12-20T09:42:21;9.07;;;4.45;;
58842;SDS011;44614;54.356;10.100;2022-12-20T09:44:50;8.82;;;4.40;;
58842;SDS011;44614;54.356;10.100;2022-12-20T09:47:20;10.23;;;4.70;;
58842;SDS011;44614;54.356;10.100;2022-12-20T09:49:49;12.25;;;4.88;;
58842;SDS011;44614;54.356;10.100;2022-12-20T09:52:28;10.82;;;4.88;;
58842;SDS011;44614;54.356;10.100;2022-12-20T09:55:10;7.63;;;4.25;;
58842;SDS011;44614;54.356;10.100;2022-12-20T10:00:44;12.55;;;4.47;;
58842;SDS011;44614;54.356;10.100;2022-12-20T10:03:12;12.25;;;5.25;;
58842;SDS011;44614;54.356;10.100;2022-12-20T10:05:52;8.80;;;4.75;;
58842;SDS011;44614;54.356;10.100;2022-12-20T10:08:34;8.38;;;3.72;;
58842;SDS011;44614;54.356;10.100;2022-12-20T10:13:50;10.95;;;5.70;;
58842;SDS011;44614;54.356;10.100;2022-12-20T10:16:41;10.05;;;4.25;;
58842;SDS011;44614;54.356;10.100;2022-12-20T10:19:20;8.52;;;4.65;;
58842;SDS011;44614;54.356;10.100;2022-12-20T10:22:24;10.15;;;5.18;;
58842;SDS011;44614;54.356;10.100;2022-12-20T10:25:18;6.00;;;3.55;;
58842;SDS011;44614;54.356;10.100;2022-12-20T10:28:03;8.90;;;3.95;;
58842;SDS011;44614;54.356;10.100;2022-12-20T10:30:36;9.73;;;4.10;;
58842;SDS011;44614;54.356;10.100;2022-12-20T10:33:01;10.30;;;3.88;;
58842;SDS011;44614;54.356;10.100;2022-12-20T10:35:36;9.50;;;4.50;;
58842;SDS011;44614;54.356;10.100;2022-12-20T10:38:08;8.73;;;4.20;;
58842;SDS011;44614;54.356;10.100;2022-12-20T10:40:42;10.00;;;4.28;;
58842;SDS011;44614;54.356;10.100;2022-12-20T10:43:13;9.00;;;4.55;;
58842;SDS011;44614;54.356;10.100;2022-12-20T10:45:41;9.00;;;4.20;;
58842;SDS011;44614;54.356;10.100;2022-12-20T10:48:50;9.85;;;4.68;;
58842;SDS011;44614;54.356;10.100;2022-12-20T10:53:56;7.20;;;4.05;;
58842;SDS011;44614;54.356;10.100;2022-12-20T10:59:02;6.85;;;4.68;;
58842;SDS011;44614;54.356;10.100;2022-12-20T11:01:48;15.80;;;4.93;;
58842;SDS011;44614;54.356;10.100;2022-12-20T11:04:24;8.38;;;3.83;;
58842;SDS011;44614;54.356;10.100;2022-12-20T11:06:52;11.18;;;3.95;;
58842;SDS011;44614;54.356;10.100;2022-12-20T11:09:33;10.18;;;4.55;;
58842;SDS011;44614;54.356;10.100;2022-12-20T11:12:04;10.30;;;4.18;;
58842;SDS011;44614;54.356;10.100;2022-12-20T11:14:30;7.32;;;3.90;;
58842;SDS011;44614;54.356;10.100;2022-12-20T11:16:58;9.93;;;4.78;;
58842;SDS011;44614;54.356;10.100;2022-12-20T11:19:45;12.63;;;4.95;;
58842;SDS011;44614;54.356;10.100;2022-12-20T11:26:02;9.77;;;4.45;;
58842;SDS011;44614;54.356;10.100;2022-12-20T11:28:44;10.25;;;4.30;;
58842;SDS011;44614;54.356;10.100;2022-12-20T11:53:00;8.73;;;4.47;;
58842;SDS011;44614;54.356;10.100;2022-12-20T11:55:34;10.50;;;5.82;;
58842;SDS011;44614;54.356;10.100;2022-12-20T11:58:05;10.73;;;5.25;;
58842;SDS011;44614;54.356;10.100;2022-12-20T12:00:35;10.85;;;5.70;;
58842;SDS011;44614;54.356;10.100;2022-12-20T12:05:44;10.10;;;5.18;;
58842;SDS011;44614;54.356;10.100;2022-12-20T12:08:18;14.82;;;5.45;;
58842;SDS011;44614;54.356;10.100;2022-12-20T12:10:54;10.52;;;4.53;;
58842;SDS011;44614;54.356;10.100;2022-12-20T12:13:25;10.00;;;4.22;;
58842;SDS011;44614;54.356;10.100;2022-12-20T12:18:28;8.30;;;4.15;;
58842;SDS011;44614;54.356;10.100;2022-12-20T12:23:36;11.77;;;5.65;;
58842;SDS011;44614;54.356;10.100;2022-12-20T12:29:17;7.75;;;3.80;;
58842;SDS011;44614;54.356;10.100;2022-12-20T12:46:07;9.27;;;4.07;;
58842;SDS011;44614;54.356;10.100;2022-12-20T12:48:49;8.82;;;4.20;;
58842;SDS011;44614;54.356;10.100;2022-12-20T12:51:22;7.45;;;3.97;;
58842;SDS011;44614;54.356;10.100;2022-12-20T12:53:53;8.75;;;4.30;;
58842;SDS011;44614;54.356;10.100;2022-12-20T13:17:47;12.80;;;3.83;;
58842;SDS011;44614;54.356;10.100;2022-12-20T13:20:30;10.32;;;5.13;;
58842;SDS011;44614;54.356;10.100;2022-12-20T13:25:33;12.23;;;4.70;;
58842;SDS011;44614;54.356;10.100;2022-12-20T13:36:49;8.80;;;3.38;;
58842;SDS011;44614;54.356;10.100;2022-12-20T13:42:11;9.77;;;4.07;;
58842;SDS011;44614;54.356;10.100;2022-12-20T13:44:44;10.27;;;4.50;;
58842;SDS011;44614;54.356;10.100;2022-12-20T13:47:14;8.45;;;4.22;;
58842;SDS011;44614;54.356;10.100;2022-12-20T13:49:51;9.65;;;4.72;;
58842;SDS011;44614;54.356;10.100;2022-12-20T13:52:21;7.97;;;3.60;;
58842;SDS011;44614;54.356;10.100;2022-12-20T13:54:52;7.93;;;4.18;;
58842;SDS011;44614;54.356;10.100;2022-12-20T13:57:25;7.22;;;3.88;;
58842;SDS011;44614;54.356;10.100;2022-12-20T13:59:53;9.23;;;3.70;;
58842;SDS011;44614;54.356;10.100;2022-12-20T14:02:21;8.52;;;4.07;;
58842;SDS011;44614;54.356;10.100;2022-12-20T14:04:53;11.07;;;3.97;;
58842;SDS011;44614;54.356;10.100;2022-12-20T14:07:23;10.52;;;4.43;;
58842;SDS011;44614;54.356;10.100;2022-12-20T14:09:55;9.57;;;4.32;;
58842;SDS011;44614;54.356;10.100;2022-12-20T14:12:22;8.15;;;4.43;;
58842;SDS011;44614;54.356;10.100;2022-12-20T14:14:48;10.45;;;4.30;;
58842;SDS011;44614;54.356;10.100;2022-12-20T14:20:03;6.25;;;3.80;;
58842;SDS011;44614;54.356;10.100;2022-12-20T14:22:40;11.20;;;4.00;;
58842;SDS011;44614;54.356;10.100;2022-12-20T14:25:12;7.70;;;4.07;;
58842;SDS011;44614;54.356;10.100;2022-12-20T14:27:42;12.38;;;4.38;;
58842;SDS011;44614;54.356;10.100;2022-12-20T14:32:53;10.02;;;4.20;;
58842;SDS011;44614;54.356;10.100;2022-12-20T14:35:20;9.20;;;5.00;;
58842;SDS011;44614;54.356;10.100;2022-12-20T14:37:53;11.88;;;4.30;;
58842;SDS011;44614;54.356;10.100;2022-12-20T14:40:19;11.38;;;5.18;;
58842;SDS011;44614;54.356;10.100;2022-12-20T14:42:46;10.33;;;4.70;;
58842;SDS011;44614;54.356;10.100;2022-12-20T14:47:37;12.13;;;5.05;;
58842;SDS011;44614;54.356;10.100;2022-12-20T14:50:19;11.55;;;5.35;;
58842;SDS011;44614;54.356;10.100;2022-12-20T14:52:48;8.47;;;3.93;;
58842;SDS011;44614;54.356;10.100;2022-12-20T14:55:15;7.53;;;3.83;;
58842;SDS011;44614;54.356;10.100;2022-12-20T14:57:44;8.90;;;3.67;;
58842;SDS011;44614;54.356;10.100;2022-12-20T15:02:48;8.53;;;4.73;;
58842;SDS011;44614;54.356;10.100;2022-12-20T15:05:35;9.95;;;4.72;;
58842;SDS011;44614;54.356;10.100;2022-12-20T15:10:39;8.27;;;4.57;;
58842;SDS011;44614;54.356;10.100;2022-12-20T15:13:10;8.32;;;4.70;;
58842;SDS011;44614;54.356;10.100;2022-12-20T15:15:38;12.70;;;5.65;;
58842;SDS011;44614;54.356;10.100;2022-12-20T15:18:08;8.63;;;5.60;;
58842;SDS011;44614;54.356;10.100;2022-12-20T15:20:35;10.05;;;4.85;;
58842;SDS011;44614;54.356;10.100;2022-12-20T15:23:01;13.00;;;4.88;;
58842;SDS011;44614;54.356;10.100;2022-12-20T15:25:27;13.13;;;4.97;;
58842;SDS011;44614;54.356;10.100;2022-12-20T15:27:55;12.25;;;6.00;;
58842;SDS011;44614;54.356;10.100;2022-12-20T15:30:21;11.13;;;6.28;;
58842;SDS011;44614;54.356;10.100;2022-12-20T15:32:46;10.85;;;4.85;;
58842;SDS011;44614;54.356;10.100;2022-12-20T15:35:12;11.23;;;4.78;;
58842;SDS011;44614;54.356;10.100;2022-12-20T15:37:39;9.35;;;5.03;;
58842;SDS011;44614;54.356;10.100;2022-12-20T15:40:05;9.80;;;4.60;;
58842;SDS011;44614;54.356;10.100;2022-12-20T15:42:30;15.52;;;5.82;;
58842;SDS011;44614;54.356;10.100;2022-12-20T15:44:56;9.40;;;6.15;;
58842;SDS011;44614;54.356;10.100;2022-12-20T15:47:22;11.70;;;6.22;;
58842;SDS011;44614;54.356;10.100;2022-12-20T15:49:47;14.18;;;6.63;;
58842;SDS011;44614;54.356;10.100;2022-12-20T15:52:15;12.97;;;5.47;;
58842;SDS011;44614;54.356;10.100;2022-12-20T15:54:44;12.23;;;5.68;;
58842;SDS011;44614;54.356;10.100;2022-12-20T15:57:10;16.10;;;7.28;;
58842;SDS011;44614;54.356;10.100;2022-12-20T15:59:38;11.55;;;5.53;;
58842;SDS011;44614;54.356;10.100;2022-12-20T16:02:11;13.20;;;6.80;;
58842;SDS011;44614;54.356;10.100;2022-12-20T16:04:45;11.70;;;7.28;;
58842;SDS011;44614;54.356;10.100;2022-12-20T16:07:11;12.85;;;6.60;;
58842;SDS011;44614;54.356;10.100;2022-12-20T16:09:37;12.05;;;5.97;;
58842;SDS011;44614;54.356;10.100;2022-12-20T16:12:02;16.27;;;6.95;;
58842;SDS011;44614;54.356;10.100;2022-12-20T16:14:28;13.45;;;6.80;;
58842;SDS011;44614;54.356;10.100;2022-12-20T16:16:53;11.88;;;6.65;;
58842;SDS011;44614;54.356;10.100;2022-12-20T16:19:19;14.63;;;7.13;;
58842;SDS011;44614;54.356;10.100;2022-12-20T16:21:48;13.30;;;7.22;;
58842;SDS011;44614;54.356;10.100;2022-12-20T16:24:16;13.25;;;6.20;;
58842;SDS011;44614;54.356;10.100;2022-12-20T16:26:44;14.57;;;7.40;;
58842;SDS011;44614;54.356;10.100;2022-12-20T16:29:09;10.18;;;6.43;;
58842;SDS011;44614;54.356;10.100;2022-12-20T16:31:36;13.70;;;7.30;;
58842;SDS011;44614;54.356;10.100;2022-12-20T16:34:04;17.98;;;7.93;;
58842;SDS011;44614;54.356;10.100;2022-12-20T16:36:34;14.05;;;7.13;;
58842;SDS011;44614;54.356;10.100;2022-12-20T16:38:59;13.05;;;7.15;;